Here is the Quick Look data you requested

The Data originates at the National Weather Service, and is made available here by the UAlbany Department of Atmospheric and Environmental Sciences

Surface Observations

KCBE 180220Z AUTO 32004KT 10SM -RA OVC015 00/M01 A2987 RMK AO2 T00031010=
KCBE 180240Z AUTO 34004KT 10SM -DZ OVC015 00/M01 A2986 RMK AO2 T00031009=
KCBE 180300Z AUTO 01005KT 5SM -DZ BR OVC013 00/M01 A2986 RMK AO2 T00031007=
KCBE 180320Z AUTO 36004KT 5SM -DZ BR OVC013 00/M01 A2986 RMK AO2=
KCBE 180340Z AUTO 35006KT 5SM BR OVC013 00/00 A2985 RMK AO2 T00021005=
KCBE 180400Z AUTO 00000KT 3SM BR OVC013 00/00 A2981 RMK AO2 T00021005=
KCBE 180420Z AUTO 32006KT 2 1/2SM -DZ BR OVC011 00/00 A2984 RMK AO2 T00011004=
KCBE 180440Z AUTO 32004KT 3SM BR OVC011 00/00 A2983 RMK AO2 T00021003=
KCBE 180500Z AUTO 00000KT 1 3/4SM DZ BR OVC009 00/00 A2982 RMK AO2 T00011004=
KCBE 180520Z AUTO 33004KT 2 1/2SM -DZ BR OVC009 00/00 A2982 RMK AO2 T00011003=
KCBE 180540Z AUTO 08004KT 2SM RA BR OVC009 00/00 A2982 RMK AO2 T00021002=
KCBE 180600Z AUTO 00000KT 1 1/4SM -DZ BR OVC009 00/00 A2981 RMK AO2 T00011003=
KCBE 180620Z AUTO 00000KT 1 1/2SM BR SCT005 OVC009 00/00 A2981 RMK AO2
 T00021001=
KCBE 180640Z AUTO 00000KT 2SM BR SCT005 OVC009 00/00 A2982 RMK AO2 T00021001=
KCBE 180700Z AUTO 00000KT 3/4SM BR BKN003 OVC009 00/00 A2982 RMK AO2 T00011002=
KCBE 180720Z AUTO 00000KT 1SM BR SCT003 OVC009 00/00 A2980 RMK AO2 T00021001=
KCBE 180740Z AUTO 00000KT 1SM BR BKN003 OVC009 00/00 A2980 RMK AO2 T00031000=
KCBE 180800Z AUTO 00000KT 1SM BR SCT003 BKN009 OVC024 00/00 A2982 RMK AO2
 T00021000=
KCBE 180820Z AUTO 00000KT 1 1/2SM BR SCT001 SCT009 OVC022 00/00 A2981 RMK AO2
 T00030000=
KCBE 180840Z AUTO 00000KT 1 1/4SM BR BKN001 BKN007 OVC022 00/00 A2982 RMK AO2
 T00030000=
KCBE 180900Z AUTO 03006KT 2 1/2SM BR SCT001 OVC022 00/00 A2982 RMK AO2
 T00040001=
KCBE 180920Z AUTO 28003KT 2 1/2SM BR SCT001 OVC022 00/00 A2983 RMK AO2
 T00050002=
KCBE 180940Z AUTO 14003KT 4SM BR BKN026 OVC031 01/00 A2983 RMK AO2 T00060002=
KCBE 181000Z AUTO 29003KT 5SM BR OVC028 01/00 A2984 RMK AO2 T00080001=
KCBE 181020Z AUTO 00000KT 7SM OVC028 03/00 A2986 RMK AO2 T00270004=
KCBE 181040Z AUTO 26003KT 10SM OVC030 05/00 A2987 RMK AO2 T00500001=
KCBE 181100Z AUTO 26005KT 10SM OVC028 05/00 A2987 RMK AO2 T00491001=
KCBE 181120Z AUTO OVC027 05/00 RMK AO2 PWINO=
KCBE 181400Z AUTO 27010G27KT 10SM 03/M03 A2999 RMK AO2 T00311026=
KCBE 181420Z AUTO 29009G25KT 10SM OVC032 03/M03 A3001 RMK AO2 T00291029=
KCBE 181440Z AUTO 26013G23KT 240V300 10SM OVC030 03/M03 A3002 RMK AO2 T00291031=
KCBE 181500Z AUTO 29009G19KT 10SM OVC032 03/M03 A3002 RMK AO2 T00301033=
KCBE 181520Z AUTO 27014G22KT 250V310 10SM OVC034 03/M03 A3004 RMK AO2 T00311034=
KCBE 181540Z AUTO 29012G29KT 10SM OVC034 03/M04 A3004 RMK AO2 T00311036=
KCBE 181600Z AUTO 30020G31KT 10SM OVC034 03/M04 A3006 RMK AO2 T00291036=
KCBE 181620Z AUTO 29012G29KT 10SM OVC036 03/M04 A3007 RMK AO2 T00301041=
KCBE 181640Z AUTO 30021G30KT 10SM OVC036 03/M04 A3008 RMK AO2 T00291043=
KCBE 181700Z AUTO 29018G27KT 270V340 10SM OVC036 03/M04 A3009 RMK AO2 T00291041=
KCBE 181720Z AUTO 25014G23KT 230V300 10SM BKN036 OVC055 03/M04 A3008 RMK AO2
 T00341038=
KCBE 181740Z AUTO 29025G32KT 10SM SCT040 BKN055 04/M05 A3009 RMK AO2 T00371045=
KCBE 181800Z AUTO 29020G30KT 10SM BKN044 OVC065 04/M05 A3009 RMK AO2 T00381049=
KCBE 181820Z AUTO 29018G30KT 10SM OVC045 03/M05 A3011 RMK AO2 T00351049=
KCBE 181840Z AUTO 32009G21KT 10SM BKN039 OVC047 03/M04 A3011 RMK AO2 T00341045=
KCBE 181900Z AUTO 29019G28KT 10SM BKN037 BKN043 OVC050 03/M05 A3013 RMK AO2
 T00301047=
KCBE 181920Z AUTO 31015G25KT 10SM -RA BKN035 OVC044 02/M04 A3014 RMK AO2
 T00231040=
KCBE 181940Z AUTO 30014G23KT 10SM -RA OVC032 02/M04 A3016 RMK AO2 T00211045=
KCBE 182000Z AUTO 30016G24KT 10SM -RA OVC032 02/M05 A3016 RMK AO2 T00201045=
KCBE 182040Z AUTO 28012G18KT 10SM BKN040 OVC045 02/M05 A3019 RMK AO2 T00231053=
KCBE 182140Z AUTO 33009G19KT 10SM -RA OVC038 02/M05 A3023 RMK AO2=
KCBE 182200Z AUTO 30009G17KT 240V340 10SM -RA OVC038 02/M05 A3024 RMK AO2
 T00171050=
KCBE 182220Z AUTO 28008G17KT 10SM -RA BKN036 OVC042 02/M05 A3025 RMK AO2
 T00151051=
KCBE 182240Z AUTO 22005KT 10SM BKN038 OVC047 01/M06 A3027 RMK AO2 T00151059=
KCBE 182300Z AUTO 26003KT 10SM BKN038 OVC045 01/M06 A3029 RMK AO2 T00141063=
KCBE 182320Z AUTO 30009G15KT 10SM BKN040 OVC047 01/M06 A3030 RMK AO2 T00111061=
KCBE 190000Z AUTO 31004G19KT 10SM OVC040 01/M07 A3033 RMK AO2 T00111065=
KCBE 190020Z AUTO 30005KT 10SM OVC042 01/M06 A3034 RMK AO2 T00101065=
KCBE 190040Z AUTO 35011G16KT 10SM OVC038 01/M06 A3036 RMK AO2 T00091065=
KCBE 190100Z AUTO 34011G18KT 10SM OVC036 01/M06 A3036 RMK AO2 T00061061=
KCBE 190120Z AUTO 32007G18KT 10SM OVC036 01/M06 A3038 RMK AO2 T00061064=
KCBE 190140Z AUTO 36008KT 10SM OVC036 00/M06 A3039 RMK AO2 T00051063=
KCBE 190200Z AUTO 33007G17KT 280V360 10SM OVC036 00/M07 A3041 RMK AO2 T00031067=
KCBE 190220Z AUTO 32010G19KT 270V330 10SM OVC036 00/M07 A3042 RMK AO2 T00021070=
KCBE 190240Z AUTO 33015G20KT 10SM -RA OVC038 00/M07 A3042 RMK AO2 T10011072=
KCBE 190300Z AUTO 33013G19KT 300V360 10SM OVC038 00/M08 A3043 RMK AO2 T10051076=
KCBE 190320Z AUTO 34010KT 10SM BKN036 BKN045 M01/M08 A3044 RMK AO2 T10091075=
KCBE 190340Z AUTO 31014G19KT 10SM BKN036 M01/M08 A3045 RMK AO2 T10101077=
KCBE 190400Z AUTO 31013G25KT 10SM BKN036 M01/M08 A3046 RMK AO2 T10111081=
KCBE 190420Z AUTO 29008KT 270V360 10SM BKN036 M01/M08 A3048 RMK AO2 T10121082=
KCBE 190440Z AUTO 29009KT 10SM OVC036 M01/M08 A3049 RMK AO2 T10121085=
KCBE 190500Z AUTO 29014G20KT 270V330 10SM OVC034 M02/M09 A3050 RMK AO2
 T10151086=
KCBE 190520Z AUTO 33008G15KT 10SM OVC034 M02/M09 A3051 RMK AO2 T10171087=
KCBE 190540Z AUTO 32011KT 280V340 10SM OVC036 M02/M10 A3051 RMK AO2 T10211097=
KCBE 190600Z AUTO 33009KT 10SM OVC036 M02/M09 A3053 RMK AO2 T10231092=
KCBE 190620Z AUTO 32006KT 10SM BKN036 M03/M10 A3053 RMK AO2 T10271096=
KCBE 190640Z AUTO 31006KT 10SM BKN034 M03/M10 A3053 RMK AO2 T10291097=
KCBE 190700Z AUTO 36007KT 10SM BKN034 M03/M10 A3055 RMK AO2 T10341101=
KCBE 190720Z AUTO 32008KT 10SM SCT034 M04/M10 A3055 RMK AO2 T10371103=
KCBE 190740Z AUTO 34009KT 10SM CLR M04/M11 A3056 RMK AO2 T10401106=